Brueggen, Germany

9:07 AM CEST on July 30, 2016 (GMT +0200)
Niederkruechten-Elmpt | | Change Station

Elev 223 ft 51.21 °N, 6.16 °E | Updated 2 minutes ago

Overcast
Overcast
62.8 °F
Feels Like 62.8 °F
N
4.4
Wind Variable Wind from SW
Gusts 8.0 mph

Today
High -- | Low -- °F
--% Chance of Precip.
Yesterday
High -- | Low -- °F
Precip. -- in
Pressure 29.92 in
Visibility 6.2 miles
Clouds Overcast 1100 ft
Dew Point 58 °F
Humidity 83%
Rainfall 0.00 in
Snow Depth Not available.
5:57 AM 9:24 PM
Waning Crescent, 15% visible
METAR EHBK 300655Z AUTO 24009KT 200V290 9999 OVC011 16/13 Q1013 NOSIG
Pressure 29.92 in
Visibility 6.2 miles
Clouds Overcast 1100 ft
Dew Point 58 °F
Humidity 83%
Rainfall 0.00 in
Snow Depth Not available.
5:57 AM 9:24 PM
Waning Crescent, 15% visible
METAR EHBK 300655Z AUTO 24009KT 200V290 9999 OVC011 16/13 Q1013 NOSIG

10-Day Weather Forecast

×

Almanac

Astronomy

Jul. 30, 2016 Rise Set
Actual Time
Civil Twilight
Nautical Twilight
Astronomical Twilight
Moon
Length of Visible Light
Length of Day
Tomorrow will be .
, % of the Moon is Illuminated

Today's Extremes

Country Highs Country Lows

Community

WunderPhotos

Upload Photos

1,928,508 photos uploaded!

WunderBlog® & News

Nearby

Air Quality

  Air Quality AQ Index Pollutant
Not available.

Snow Depth

Station Depth Elevation

Earthquake Activity

City Distance Mag. Time & Date
Minimum magnitude displayed is 2.5.

Coastal Water Temperatures

Place Temperature

Stations

Nearby Weather Stations

Station Location Temp. Windchill Dew Point Humidity Wind Precip. Elev Updated Type